<?xml version="1.0" encoding="UTF-8"?>
<gpx
  version="1.0"
  creator="GPSBabel - http://www.gpsbabel.org"
  xmlns:xsi="http://www.w3.org/2001/XMLSchema-instance"
  xmlns="http://www.topografix.com/GPX/1/0"
  xsi:schemaLocation="http://www.topografix.com/GPX/1/0 http://www.topografix.com/GPX/1/0/gpx.xsd">
<time>2011-07-08T11:24:21Z</time>
<bounds minlat="32.580757141" minlon="34.991767883" maxlat="32.597461700" maxlon="35.019863129"/>
<trk>
  <name>Holux2011/07/08_06:31</name>
<trkseg>
<trkpt lat="32.590866089" lon="35.006591797">
  <ele>60.979797</ele>
  <time>2011-07-08T03:31:39Z</time>
  <speed>2.950000</speed>
</trkpt>
<trkpt lat="32.590637207" lon="35.005321503">
  <ele>57.600891</ele>
  <time>2011-07-08T03:32:14Z</time>
  <speed>3.690000</speed>
</trkpt>
<trkpt lat="32.590644836" lon="35.003780365">
  <ele>54.326477</ele>
  <time>2011-07-08T03:32:42Z</time>
  <speed>6.890000</speed>
</trkpt>
<trkpt lat="32.590427399" lon="35.002796173">
  <ele>54.243469</ele>
  <time>2011-07-08T03:32:56Z</time>
  <speed>5.480000</speed>
</trkpt>
<trkpt lat="32.590450287" lon="35.001277924">
  <ele>46.610657</ele>
  <time>2011-07-08T03:33:21Z</time>
  <speed>6.170000</speed>
</trkpt>
<trkpt lat="32.590625763" lon="34.998954773">
  <ele>53.883118</ele>
  <time>2011-07-08T03:34:00Z</time>
  <speed>4.680000</speed>
</trkpt>
<trkpt lat="32.590400696" lon="34.998146057">
  <ele>54.474915</ele>
  <time>2011-07-08T03:34:15Z</time>
  <speed>5.350000</speed>
</trkpt>
<trkpt lat="32.589550018" lon="34.995944977">
  <ele>51.070618</ele>
  <time>2011-07-08T03:35:00Z</time>
  <speed>4.960000</speed>
</trkpt>
<trkpt lat="32.589408875" lon="34.995658875">
  <ele>51.217102</ele>
  <time>2011-07-08T03:35:06Z</time>
  <speed>5.050000</speed>
</trkpt>
<trkpt lat="32.589061737" lon="34.995212555">
  <ele>51.192688</ele>
  <time>2011-07-08T03:35:18Z</time>
  <speed>4.490000</speed>
</trkpt>
<trkpt lat="32.588733673" lon="34.994895935">
  <ele>52.552063</ele>
  <time>2011-07-08T03:35:29Z</time>
  <speed>3.670000</speed>
</trkpt>
<trkpt lat="32.588188171" lon="34.994533539">
  <ele>56.163391</ele>
  <time>2011-07-08T03:35:52Z</time>
  <speed>2.930000</speed>
</trkpt>
<trkpt lat="32.587749481" lon="34.994071960">
  <ele>60.280579</ele>
  <time>2011-07-08T03:36:17Z</time>
  <speed>3.090000</speed>
</trkpt>
<trkpt lat="32.587306976" lon="34.993827820">
  <ele>62.541321</ele>
  <time>2011-07-08T03:36:36Z</time>
  <speed>2.640000</speed>
</trkpt>
<trkpt lat="32.586273193" lon="34.992568970">
  <ele>63.551086</ele>
  <time>2011-07-08T03:37:16Z</time>
  <speed>4.050000</speed>
</trkpt>
<trkpt lat="32.585437775" lon="34.991798401">
  <ele>66.180298</ele>
  <time>2011-07-08T03:37:48Z</time>
  <speed>1.940000</speed>
</trkpt>
<trkpt lat="32.585285187" lon="34.991767883">
  <ele>68.393188</ele>
  <time>2011-07-08T03:37:56Z</time>
  <speed>1.750000</speed>
</trkpt>
<trkpt lat="32.585086823" lon="34.991950989">
  <ele>67.877563</ele>
  <time>2011-07-08T03:38:06Z</time>
  <speed>3.090000</speed>
</trkpt>
<trkpt lat="32.584972382" lon="34.992549896">
  <ele>72.852173</ele>
  <time>2011-07-08T03:38:32Z</time>
  <speed>1.700000</speed>
</trkpt>
<trkpt lat="32.585281372" lon="34.992755890">
  <ele>78.156860</ele>
  <time>2011-07-08T03:38:56Z</time>
  <speed>1.570000</speed>
</trkpt>
<trkpt lat="32.585277557" lon="34.993022919">
  <ele>81.744751</ele>
  <time>2011-07-08T03:39:12Z</time>
  <speed>1.350000</speed>
</trkpt>
<trkpt lat="32.585510254" lon="34.993392944">
  <ele>88.668579</ele>
  <time>2011-07-08T03:39:36Z</time>
  <speed>1.480000</speed>
</trkpt>
<trkpt lat="32.585472107" lon="34.993595123">
  <ele>88.977173</ele>
  <time>2011-07-08T03:39:48Z</time>
  <speed>1.340000</speed>
</trkpt>
<trkpt lat="32.585529327" lon="34.993824005">
  <ele>92.707642</ele>
  <time>2011-07-08T03:40:04Z</time>
  <speed>1.320000</speed>
</trkpt>
<trkpt lat="32.585712433" lon="34.994159698">
  <ele>96.826782</ele>
  <time>2011-07-08T03:40:31Z</time>
  <speed>1.440000</speed>
</trkpt>
<trkpt lat="32.585353851" lon="34.994503021">
  <ele>103.379517</ele>
  <time>2011-07-08T03:41:07Z</time>
  <speed>1.020000</speed>
</trkpt>
<trkpt lat="32.585117340" lon="34.994976044">
  <ele>103.606079</ele>
  <time>2011-07-08T03:41:47Z</time>
  <speed>1.300000</speed>
</trkpt>
<trkpt lat="32.585147858" lon="34.995136261">
  <ele>107.746704</ele>
  <time>2011-07-08T03:41:56Z</time>
  <speed>1.690000</speed>
</trkpt>
<trkpt lat="32.585330963" lon="34.995361328">
  <ele>113.838501</ele>
  <time>2011-07-08T03:42:14Z</time>
  <speed>1.440000</speed>
</trkpt>
<trkpt lat="32.585548401" lon="34.995285034">
  <ele>115.756470</ele>
  <time>2011-07-08T03:42:28Z</time>
  <speed>1.820000</speed>
</trkpt>
<trkpt lat="32.585639954" lon="34.995319366">
  <ele>114.906860</ele>
  <time>2011-07-08T03:42:35Z</time>
  <speed>1.510000</speed>
</trkpt>
<trkpt lat="32.585697174" lon="34.995498657">
  <ele>116.322876</ele>
  <time>2011-07-08T03:42:46Z</time>
  <speed>1.870000</speed>
</trkpt>
<trkpt lat="32.585647583" lon="34.995685577">
  <ele>118.916626</ele>
  <time>2011-07-08T03:42:59Z</time>
  <speed>1.280000</speed>
</trkpt>
<trkpt lat="32.585700989" lon="34.995731354">
  <ele>119.791626</ele>
  <time>2011-07-08T03:43:05Z</time>
  <speed>1.170000</speed>
</trkpt>
<trkpt lat="32.586189270" lon="34.995742798">
  <ele>122.606079</ele>
  <time>2011-07-08T03:43:39Z</time>
  <speed>1.660000</speed>
</trkpt>
<trkpt lat="32.586444855" lon="34.995819092">
  <ele>122.776001</ele>
  <time>2011-07-08T03:43:58Z</time>
  <speed>1.490000</speed>
</trkpt>
<trkpt lat="32.586631775" lon="34.995758057">
  <ele>121.238892</ele>
  <time>2011-07-08T03:44:06Z</time>
  <speed>4.230000</speed>
</trkpt>
<trkpt lat="32.586719513" lon="34.995815277">
  <ele>122.063110</ele>
  <time>2011-07-08T03:44:09Z</time>
  <speed>2.760000</speed>
</trkpt>
<trkpt lat="32.586730957" lon="34.995929718">
  <ele>121.983032</ele>
  <time>2011-07-08T03:44:15Z</time>
  <speed>1.710000</speed>
</trkpt>
<trkpt lat="32.586692810" lon="34.995990753">
  <ele>122.281860</ele>
  <time>2011-07-08T03:44:19Z</time>
  <speed>1.180000</speed>
</trkpt>
<trkpt lat="32.586624146" lon="34.996124268">
  <ele>123.477173</ele>
  <time>2011-07-08T03:44:29Z</time>
  <speed>2.010000</speed>
</trkpt>
<trkpt lat="32.586719513" lon="34.996620178">
  <ele>131.688721</ele>
  <time>2011-07-08T03:45:01Z</time>
  <speed>1.410000</speed>
</trkpt>
<trkpt lat="32.586860657" lon="34.996925354">
  <ele>136.493408</ele>
  <time>2011-07-08T03:45:24Z</time>
  <speed>1.680000</speed>
</trkpt>
<trkpt lat="32.586727142" lon="34.997219086">
  <ele>137.884033</ele>
  <time>2011-07-08T03:45:47Z</time>
  <speed>1.380000</speed>
</trkpt>
<trkpt lat="32.586738586" lon="34.997383118">
  <ele>139.958252</ele>
  <time>2011-07-08T03:45:57Z</time>
  <speed>1.360000</speed>
</trkpt>
<trkpt lat="32.587020874" lon="34.997211456">
  <ele>143.180908</ele>
  <time>2011-07-08T03:46:16Z</time>
  <speed>1.500000</speed>
</trkpt>
<trkpt lat="32.587261200" lon="34.996940613">
  <ele>145.009033</ele>
  <time>2011-07-08T03:46:37Z</time>
  <speed>1.950000</speed>
</trkpt>
<trkpt lat="32.587501526" lon="34.996814728">
  <ele>144.473877</ele>
  <time>2011-07-08T03:46:53Z</time>
  <speed>1.770000</speed>
</trkpt>
<trkpt lat="32.587707520" lon="34.996818542">
  <ele>144.692627</ele>
  <time>2011-07-08T03:47:07Z</time>
  <speed>1.590000</speed>
</trkpt>
<trkpt lat="32.587821960" lon="34.997020721">
  <ele>145.532471</ele>
  <time>2011-07-08T03:47:22Z</time>
  <speed>1.540000</speed>
</trkpt>
<trkpt lat="32.587688446" lon="34.998031616">
  <ele>158.485596</ele>
  <time>2011-07-08T03:48:26Z</time>
  <speed>1.440000</speed>
</trkpt>
<trkpt lat="32.587543488" lon="34.998291016">
  <ele>163.880127</ele>
  <time>2011-07-08T03:48:49Z</time>
  <speed>1.430000</speed>
</trkpt>
<trkpt lat="32.587547302" lon="34.998493195">
  <ele>166.477783</ele>
  <time>2011-07-08T03:49:03Z</time>
  <speed>1.270000</speed>
</trkpt>
<trkpt lat="32.587677002" lon="34.998893738">
  <ele>172.778564</ele>
  <time>2011-07-08T03:49:35Z</time>
  <speed>1.160000</speed>
</trkpt>
<trkpt lat="32.588150024" lon="34.999549866">
  <ele>177.583252</ele>
  <time>2011-07-08T03:50:31Z</time>
  <speed>1.420000</speed>
</trkpt>
<trkpt lat="32.588138580" lon="35.000106812">
  <ele>180.251221</ele>
  <time>2011-07-08T03:51:04Z</time>
  <speed>2.370000</speed>
</trkpt>
<trkpt lat="32.588287354" lon="35.000862122">
  <ele>175.130127</ele>
  <time>2011-07-08T03:51:34Z</time>
  <speed>3.640000</speed>
</trkpt>
<trkpt lat="32.588203430" lon="35.001125336">
  <ele>175.575439</ele>
  <time>2011-07-08T03:51:41Z</time>
  <speed>3.700000</speed>
</trkpt>
<trkpt lat="32.588207245" lon="35.001964569">
  <ele>162.973877</ele>
  <time>2011-07-08T03:52:02Z</time>
  <speed>4.120000</speed>
</trkpt>
<trkpt lat="32.587932587" lon="35.002262115">
  <ele>158.180908</ele>
  <time>2011-07-08T03:52:12Z</time>
  <speed>3.800000</speed>
</trkpt>
<trkpt lat="32.587856293" lon="35.002475739">
  <ele>159.024658</ele>
  <time>2011-07-08T03:52:16Z</time>
  <speed>5.010000</speed>
</trkpt>
<trkpt lat="32.587997437" lon="35.003124237">
  <ele>158.438721</ele>
  <time>2011-07-08T03:52:31Z</time>
  <speed>1.820000</speed>
</trkpt>
<trkpt lat="32.588005066" lon="35.003574371">
  <ele>166.821533</ele>
  <time>2011-07-08T03:53:04Z</time>
  <speed>0.980000</speed>
</trkpt>
<trkpt lat="32.588119507" lon="35.003852844">
  <ele>169.270752</ele>
  <time>2011-07-08T03:53:26Z</time>
  <speed>1.350000</speed>
</trkpt>
<trkpt lat="32.587944031" lon="35.004154205">
  <ele>172.856689</ele>
  <time>2011-07-08T03:53:59Z</time>
  <speed>1.140000</speed>
</trkpt>
<trkpt lat="32.587806702" lon="35.004261017">
  <ele>173.485596</ele>
  <time>2011-07-08T03:54:14Z</time>
  <speed>1.550000</speed>
</trkpt>
<trkpt lat="32.587860107" lon="35.004516602">
  <ele>172.993408</ele>
  <time>2011-07-08T03:54:30Z</time>
  <speed>1.730000</speed>
</trkpt>
<trkpt lat="32.587810516" lon="35.004726410">
  <ele>172.173096</ele>
  <time>2011-07-08T03:55:53Z</time>
  <speed>3.350000</speed>
</trkpt>
<trkpt lat="32.587646484" lon="35.005027771">
  <ele>163.555908</ele>
  <time>2011-07-08T03:56:02Z</time>
  <speed>2.230000</speed>
</trkpt>
<trkpt lat="32.587646484" lon="35.005237579">
  <ele>158.380127</ele>
  <time>2011-07-08T03:56:11Z</time>
  <speed>2.630000</speed>
</trkpt>
<trkpt lat="32.587509155" lon="35.005401611">
  <ele>149.825439</ele>
  <time>2011-07-08T03:56:20Z</time>
  <speed>2.650000</speed>
</trkpt>
<trkpt lat="32.587425232" lon="35.005718231">
  <ele>139.161377</ele>
  <time>2011-07-08T03:56:36Z</time>
  <speed>1.920000</speed>
</trkpt>
<trkpt lat="32.587505341" lon="35.006031036">
  <ele>132.219971</ele>
  <time>2011-07-08T03:56:49Z</time>
  <speed>1.730000</speed>
</trkpt>
<trkpt lat="32.587677002" lon="35.006107330">
  <ele>125.633423</ele>
  <time>2011-07-08T03:56:56Z</time>
  <speed>2.950000</speed>
</trkpt>
<trkpt lat="32.587898254" lon="35.006454468">
  <ele>120.776001</ele>
  <time>2011-07-08T03:57:12Z</time>
  <speed>1.180000</speed>
</trkpt>
<trkpt lat="32.588047028" lon="35.006481171">
  <ele>118.014282</ele>
  <time>2011-07-08T03:57:23Z</time>
  <speed>1.250000</speed>
</trkpt>
<trkpt lat="32.588062286" lon="35.006549835">
  <ele>118.578735</ele>
  <time>2011-07-08T03:57:26Z</time>
  <speed>2.640000</speed>
</trkpt>
<trkpt lat="32.587959290" lon="35.006828308">
  <ele>110.734985</ele>
  <time>2011-07-08T03:57:34Z</time>
  <speed>2.980000</speed>
</trkpt>
<trkpt lat="32.588054657" lon="35.007091522">
  <ele>103.352173</ele>
  <time>2011-07-08T03:57:43Z</time>
  <speed>3.210000</speed>
</trkpt>
<trkpt lat="32.587940216" lon="35.007366180">
  <ele>95.609985</ele>
  <time>2011-07-08T03:57:53Z</time>
  <speed>1.360000</speed>
</trkpt>
<trkpt lat="32.588035583" lon="35.007534027">
  <ele>89.651001</ele>
  <time>2011-07-08T03:58:03Z</time>
  <speed>1.950000</speed>
</trkpt>
<trkpt lat="32.587779999" lon="35.007545471">
  <ele>79.469360</ele>
  <time>2011-07-08T03:58:18Z</time>
  <speed>4.130000</speed>
</trkpt>
<trkpt lat="32.587657928" lon="35.007701874">
  <ele>81.567017</ele>
  <time>2011-07-08T03:58:21Z</time>
  <speed>3.760000</speed>
</trkpt>
<trkpt lat="32.587642670" lon="35.007949829">
  <ele>85.443970</ele>
  <time>2011-07-08T03:58:34Z</time>
  <speed>0.720000</speed>
</trkpt>
<trkpt lat="32.588161469" lon="35.008495331">
  <ele>94.608032</ele>
  <time>2011-07-08T03:59:49Z</time>
  <speed>3.010000</speed>
</trkpt>
<trkpt lat="32.588485718" lon="35.009197235">
  <ele>97.500610</ele>
  <time>2011-07-08T04:00:22Z</time>
  <speed>1.770000</speed>
</trkpt>
<trkpt lat="32.588470459" lon="35.010086060">
  <ele>102.317017</ele>
  <time>2011-07-08T04:01:08Z</time>
  <speed>1.300000</speed>
</trkpt>
<trkpt lat="32.588790894" lon="35.011253357">
  <ele>100.065063</ele>
  <time>2011-07-08T04:02:11Z</time>
  <speed>2.020000</speed>
</trkpt>
<trkpt lat="32.588768005" lon="35.011737823">
  <ele>103.672485</ele>
  <time>2011-07-08T04:02:33Z</time>
  <speed>1.540000</speed>
</trkpt>
<trkpt lat="32.588836670" lon="35.012042999">
  <ele>106.809204</ele>
  <time>2011-07-08T04:02:47Z</time>
  <speed>1.970000</speed>
</trkpt>
<trkpt lat="32.589321136" lon="35.012313843">
  <ele>111.805298</ele>
  <time>2011-07-08T04:03:18Z</time>
  <speed>1.150000</speed>
</trkpt>
<trkpt lat="32.589721680" lon="35.012500763">
  <ele>120.639282</ele>
  <time>2011-07-08T04:03:48Z</time>
  <speed>1.190000</speed>
</trkpt>
<trkpt lat="32.590816498" lon="35.013298035">
  <ele>131.708252</ele>
  <time>2011-07-08T04:05:16Z</time>
  <speed>1.250000</speed>
</trkpt>
<trkpt lat="32.591011047" lon="35.013511658">
  <ele>127.322876</ele>
  <time>2011-07-08T04:05:33Z</time>
  <speed>1.580000</speed>
</trkpt>
<trkpt lat="32.590587616" lon="35.013870239">
  <ele>123.375610</ele>
  <time>2011-07-08T04:06:10Z</time>
  <speed>1.660000</speed>
</trkpt>
<trkpt lat="32.590026855" lon="35.013774872">
  <ele>131.540283</ele>
  <time>2011-07-08T04:06:48Z</time>
  <speed>0.710000</speed>
</trkpt>
<trkpt lat="32.590091705" lon="35.013629913">
  <ele>131.583252</ele>
  <time>2011-07-08T04:06:58Z</time>
  <speed>1.960000</speed>
</trkpt>
<trkpt lat="32.590076447" lon="35.013256073">
  <ele>133.743408</ele>
  <time>2011-07-08T04:08:13Z</time>
  <speed>3.660000</speed>
</trkpt>
<trkpt lat="32.590129852" lon="35.013065338">
  <ele>131.083252</ele>
  <time>2011-07-08T04:08:20Z</time>
  <speed>1.780000</speed>
</trkpt>
<trkpt lat="32.590381622" lon="35.012813568">
  <ele>123.744751</ele>
  <time>2011-07-08T04:08:31Z</time>
  <speed>3.420000</speed>
</trkpt>
<trkpt lat="32.590476990" lon="35.012626648">
  <ele>118.068970</ele>
  <time>2011-07-08T04:08:37Z</time>
  <speed>3.880000</speed>
</trkpt>
<trkpt lat="32.590511322" lon="35.011795044">
  <ele>93.397095</ele>
  <time>2011-07-08T04:09:03Z</time>
  <speed>2.470000</speed>
</trkpt>
<trkpt lat="32.589893341" lon="35.011009216">
  <ele>77.494751</ele>
  <time>2011-07-08T04:09:26Z</time>
  <speed>0.950000</speed>
</trkpt>
<trkpt lat="32.589710236" lon="35.011165619">
  <ele>73.410767</ele>
  <time>2011-07-08T04:09:46Z</time>
  <speed>1.340000</speed>
</trkpt>
<trkpt lat="32.589611053" lon="35.011413574">
  <ele>76.906860</ele>
  <time>2011-07-08T04:10:03Z</time>
  <speed>1.210000</speed>
</trkpt>
<trkpt lat="32.589401245" lon="35.011611938">
  <ele>84.848267</ele>
  <time>2011-07-08T04:10:23Z</time>
  <speed>1.090000</speed>
</trkpt>
<trkpt lat="32.588951111" lon="35.011825562">
  <ele>101.574829</ele>
  <time>2011-07-08T04:11:01Z</time>
  <speed>1.590000</speed>
</trkpt>
<trkpt lat="32.588871002" lon="35.011913300">
  <ele>104.301392</ele>
  <time>2011-07-08T04:11:12Z</time>
  <speed>1.410000</speed>
</trkpt>
<trkpt lat="32.588893890" lon="35.012046814">
  <ele>109.516235</ele>
  <time>2011-07-08T04:11:21Z</time>
  <speed>1.150000</speed>
</trkpt>
<trkpt lat="32.588935852" lon="35.012123108">
  <ele>110.541626</ele>
  <time>2011-07-08T04:11:27Z</time>
  <speed>1.190000</speed>
</trkpt>
<trkpt lat="32.589153290" lon="35.012172699">
  <ele>113.754517</ele>
  <time>2011-07-08T04:12:16Z</time>
  <speed>0.930000</speed>
</trkpt>
<trkpt lat="32.589565277" lon="35.012393951">
  <ele>118.703735</ele>
  <time>2011-07-08T04:12:58Z</time>
  <speed>1.320000</speed>
</trkpt>
<trkpt lat="32.590785980" lon="35.013252258">
  <ele>126.850220</ele>
  <time>2011-07-08T04:14:32Z</time>
  <speed>1.010000</speed>
</trkpt>
<trkpt lat="32.590976715" lon="35.013397217">
  <ele>127.574829</ele>
  <time>2011-07-08T04:14:45Z</time>
  <speed>1.660000</speed>
</trkpt>
<trkpt lat="32.590976715" lon="35.013595581">
  <ele>129.587158</ele>
  <time>2011-07-08T04:14:56Z</time>
  <speed>1.660000</speed>
</trkpt>
<trkpt lat="32.590576172" lon="35.013874054">
  <ele>131.368408</ele>
  <time>2011-07-08T04:15:29Z</time>
  <speed>1.240000</speed>
</trkpt>
<trkpt lat="32.590053558" lon="35.013805389">
  <ele>128.735596</ele>
  <time>2011-07-08T04:16:07Z</time>
  <speed>0.470000</speed>
</trkpt>
<trkpt lat="32.589988708" lon="35.013919830">
  <ele>130.985596</ele>
  <time>2011-07-08T04:17:43Z</time>
  <speed>2.370000</speed>
</trkpt>
<trkpt lat="32.589866638" lon="35.013965607">
  <ele>128.899658</ele>
  <time>2011-07-08T04:17:48Z</time>
  <speed>1.550000</speed>
</trkpt>
<trkpt lat="32.589241028" lon="35.014003754">
  <ele>123.904907</ele>
  <time>2011-07-08T04:18:07Z</time>
  <speed>3.860000</speed>
</trkpt>
<trkpt lat="32.589069366" lon="35.013961792">
  <ele>124.680298</ele>
  <time>2011-07-08T04:18:12Z</time>
  <speed>2.790000</speed>
</trkpt>
<trkpt lat="32.588600159" lon="35.014205933">
  <ele>120.049438</ele>
  <time>2011-07-08T04:18:27Z</time>
  <speed>3.480000</speed>
</trkpt>
<trkpt lat="32.588260651" lon="35.014152527">
  <ele>119.016235</ele>
  <time>2011-07-08T04:18:38Z</time>
  <speed>2.820000</speed>
</trkpt>
<trkpt lat="32.587879181" lon="35.014415741">
  <ele>113.690063</ele>
  <time>2011-07-08T04:18:53Z</time>
  <speed>1.730000</speed>
</trkpt>
<trkpt lat="32.587894440" lon="35.014492035">
  <ele>110.733032</ele>
  <time>2011-07-08T04:18:57Z</time>
  <speed>0.710000</speed>
</trkpt>
<trkpt lat="32.587562561" lon="35.014846802">
  <ele>111.596313</ele>
  <time>2011-07-08T04:20:39Z</time>
  <speed>0.440000</speed>
</trkpt>
<trkpt lat="32.587257385" lon="35.014709473">
  <ele>114.588501</ele>
  <time>2011-07-08T04:21:03Z</time>
  <speed>0.960000</speed>
</trkpt>
<trkpt lat="32.586967468" lon="35.014739990">
  <ele>120.899048</ele>
  <time>2011-07-08T04:21:31Z</time>
  <speed>0.790000</speed>
</trkpt>
<trkpt lat="32.587047577" lon="35.014884949">
  <ele>125.082642</ele>
  <time>2011-07-08T04:21:50Z</time>
  <speed>0.380000</speed>
</trkpt>
<trkpt lat="32.587341309" lon="35.015045166">
  <ele>132.583252</ele>
  <time>2011-07-08T04:22:17Z</time>
  <speed>0.870000</speed>
</trkpt>
<trkpt lat="32.587772369" lon="35.015583038">
  <ele>136.450439</ele>
  <time>2011-07-08T04:22:58Z</time>
  <speed>1.860000</speed>
</trkpt>
<trkpt lat="32.587799072" lon="35.016120911">
  <ele>141.200439</ele>
  <time>2011-07-08T04:23:34Z</time>
  <speed>1.470000</speed>
</trkpt>
<trkpt lat="32.587951660" lon="35.016498566">
  <ele>143.270752</ele>
  <time>2011-07-08T04:24:03Z</time>
  <speed>1.600000</speed>
</trkpt>
<trkpt lat="32.588523865" lon="35.016880035">
  <ele>144.157471</ele>
  <time>2011-07-08T04:24:42Z</time>
  <speed>2.020000</speed>
</trkpt>
<trkpt lat="32.588741302" lon="35.017242432">
  <ele>146.387939</ele>
  <time>2011-07-08T04:25:02Z</time>
  <speed>1.730000</speed>
</trkpt>
<trkpt lat="32.588790894" lon="35.018318176">
  <ele>151.790283</ele>
  <time>2011-07-08T04:25:54Z</time>
  <speed>2.380000</speed>
</trkpt>
<trkpt lat="32.588588715" lon="35.019275665">
  <ele>149.415283</ele>
  <time>2011-07-08T04:26:39Z</time>
  <speed>1.660000</speed>
</trkpt>
<trkpt lat="32.588291168" lon="35.019809723">
  <ele>143.094971</ele>
  <time>2011-07-08T04:27:03Z</time>
  <speed>2.700000</speed>
</trkpt>
<trkpt lat="32.588146210" lon="35.019863129">
  <ele>142.567627</ele>
  <time>2011-07-08T04:27:09Z</time>
  <speed>2.380000</speed>
</trkpt>
<trkpt lat="32.587783813" lon="35.019824982">
  <ele>142.497314</ele>
  <time>2011-07-08T04:27:24Z</time>
  <speed>2.720000</speed>
</trkpt>
<trkpt lat="32.587814331" lon="35.019721985">
  <ele>145.544189</ele>
  <time>2011-07-08T04:27:30Z</time>
  <speed>2.410000</speed>
</trkpt>
<trkpt lat="32.588169098" lon="35.019691467">
  <ele>154.579346</ele>
  <time>2011-07-08T04:27:49Z</time>
  <speed>2.280000</speed>
</trkpt>
<trkpt lat="32.588188171" lon="35.019584656">
  <ele>158.997314</ele>
  <time>2011-07-08T04:27:54Z</time>
  <speed>1.250000</speed>
</trkpt>
<trkpt lat="32.588096619" lon="35.019489288">
  <ele>162.161377</ele>
  <time>2011-07-08T04:28:03Z</time>
  <speed>1.680000</speed>
</trkpt>
<trkpt lat="32.588161469" lon="35.019329071">
  <ele>166.419189</ele>
  <time>2011-07-08T04:28:14Z</time>
  <speed>0.970000</speed>
</trkpt>
<trkpt lat="32.588264465" lon="35.019256592">
  <ele>167.509033</ele>
  <time>2011-07-08T04:28:24Z</time>
  <speed>1.250000</speed>
</trkpt>
<trkpt lat="32.588466644" lon="35.018611908">
  <ele>166.032471</ele>
  <time>2011-07-08T04:28:52Z</time>
  <speed>5.360000</speed>
</trkpt>
<trkpt lat="32.588424683" lon="35.018218994">
  <ele>164.833252</ele>
  <time>2011-07-08T04:28:58Z</time>
  <speed>2.710000</speed>
</trkpt>
<trkpt lat="32.588218689" lon="35.017917633">
  <ele>162.102783</ele>
  <time>2011-07-08T04:29:18Z</time>
  <speed>1.460000</speed>
</trkpt>
<trkpt lat="32.588047028" lon="35.017822266">
  <ele>170.579346</ele>
  <time>2011-07-08T04:29:30Z</time>
  <speed>1.120000</speed>
</trkpt>
<trkpt lat="32.587791443" lon="35.017898560">
  <ele>174.477783</ele>
  <time>2011-07-08T04:29:50Z</time>
  <speed>0.830000</speed>
</trkpt>
<trkpt lat="32.587677002" lon="35.017704010">
  <ele>171.833252</ele>
  <time>2011-07-08T04:30:01Z</time>
  <speed>2.480000</speed>
</trkpt>
<trkpt lat="32.587188721" lon="35.017662048">
  <ele>175.688721</ele>
  <time>2011-07-08T04:30:35Z</time>
  <speed>1.650000</speed>
</trkpt>
<trkpt lat="32.586727142" lon="35.017467499">
  <ele>184.755127</ele>
  <time>2011-07-08T04:31:15Z</time>
  <speed>1.340000</speed>
</trkpt>
<trkpt lat="32.586322784" lon="35.017406464">
  <ele>187.294189</ele>
  <time>2011-07-08T04:31:46Z</time>
  <speed>1.390000</speed>
</trkpt>
<trkpt lat="32.586006165" lon="35.017238617">
  <ele>187.790283</ele>
  <time>2011-07-08T04:32:11Z</time>
  <speed>1.590000</speed>
</trkpt>
<trkpt lat="32.585315704" lon="35.017158508">
  <ele>184.587158</ele>
  <time>2011-07-08T04:32:49Z</time>
  <speed>3.300000</speed>
</trkpt>
<trkpt lat="32.584987640" lon="35.017047882">
  <ele>184.989502</ele>
  <time>2011-07-08T04:33:00Z</time>
  <speed>1.470000</speed>
</trkpt>
<trkpt lat="32.585079193" lon="35.017154694">
  <ele>189.368408</ele>
  <time>2011-07-08T04:33:11Z</time>
  <speed>1.790000</speed>
</trkpt>
<trkpt lat="32.585285187" lon="35.017223358">
  <ele>187.208252</ele>
  <time>2011-07-08T04:33:20Z</time>
  <speed>1.420000</speed>
</trkpt>
<trkpt lat="32.585231781" lon="35.017143250">
  <ele>188.567627</ele>
  <time>2011-07-08T04:33:27Z</time>
  <speed>3.470000</speed>
</trkpt>
<trkpt lat="32.584316254" lon="35.016727448">
  <ele>183.130127</ele>
  <time>2011-07-08T04:33:46Z</time>
  <speed>4.450000</speed>
</trkpt>
<trkpt lat="32.584495544" lon="35.014888763">
  <ele>182.966064</ele>
  <time>2011-07-08T04:34:43Z</time>
  <speed>3.250000</speed>
</trkpt>
<trkpt lat="32.584499359" lon="35.014156342">
  <ele>184.419189</ele>
  <time>2011-07-08T04:35:07Z</time>
  <speed>3.230000</speed>
</trkpt>
<trkpt lat="32.584400177" lon="35.013648987">
  <ele>180.809814</ele>
  <time>2011-07-08T04:35:21Z</time>
  <speed>3.610000</speed>
</trkpt>
<trkpt lat="32.584384918" lon="35.013034821">
  <ele>184.704346</ele>
  <time>2011-07-08T04:35:36Z</time>
  <speed>3.760000</speed>
</trkpt>
<trkpt lat="32.584461212" lon="35.012668610">
  <ele>182.434814</ele>
  <time>2011-07-08T04:35:46Z</time>
  <speed>3.310000</speed>
</trkpt>
<trkpt lat="32.584754944" lon="35.012321472">
  <ele>180.036377</ele>
  <time>2011-07-08T04:36:03Z</time>
  <speed>2.470000</speed>
</trkpt>
<trkpt lat="32.585041046" lon="35.011798859">
  <ele>179.501221</ele>
  <time>2011-07-08T04:36:23Z</time>
  <speed>2.880000</speed>
</trkpt>
<trkpt lat="32.585083008" lon="35.011356354">
  <ele>180.302002</ele>
  <time>2011-07-08T04:36:36Z</time>
  <speed>2.930000</speed>
</trkpt>
<trkpt lat="32.585033417" lon="35.010967255">
  <ele>178.938721</ele>
  <time>2011-07-08T04:36:51Z</time>
  <speed>2.240000</speed>
</trkpt>
<trkpt lat="32.584819794" lon="35.010570526">
  <ele>176.419189</ele>
  <time>2011-07-08T04:37:10Z</time>
  <speed>2.680000</speed>
</trkpt>
<trkpt lat="32.584392548" lon="35.010025024">
  <ele>178.044189</ele>
  <time>2011-07-08T04:37:36Z</time>
  <speed>3.280000</speed>
</trkpt>
<trkpt lat="32.584171295" lon="35.009578705">
  <ele>178.032471</ele>
  <time>2011-07-08T04:37:51Z</time>
  <speed>3.610000</speed>
</trkpt>
<trkpt lat="32.584033966" lon="35.009056091">
  <ele>175.825439</ele>
  <time>2011-07-08T04:38:07Z</time>
  <speed>3.130000</speed>
</trkpt>
<trkpt lat="32.583854675" lon="35.007419586">
  <ele>178.141846</ele>
  <time>2011-07-08T04:38:58Z</time>
  <speed>2.350000</speed>
</trkpt>
<trkpt lat="32.583763123" lon="35.007247925">
  <ele>179.372314</ele>
  <time>2011-07-08T04:39:04Z</time>
  <speed>3.530000</speed>
</trkpt>
<trkpt lat="32.583633423" lon="35.007152557">
  <ele>180.321533</ele>
  <time>2011-07-08T04:39:09Z</time>
  <speed>3.190000</speed>
</trkpt>
<trkpt lat="32.583553314" lon="35.007076263">
  <ele>181.071533</ele>
  <time>2011-07-08T04:39:13Z</time>
  <speed>2.470000</speed>
</trkpt>
<trkpt lat="32.583530426" lon="35.006778717">
  <ele>184.048096</ele>
  <time>2011-07-08T04:39:25Z</time>
  <speed>1.820000</speed>
</trkpt>
<trkpt lat="32.583633423" lon="35.006481171">
  <ele>185.540283</ele>
  <time>2011-07-08T04:39:41Z</time>
  <speed>2.130000</speed>
</trkpt>
<trkpt lat="32.583614349" lon="35.006259918">
  <ele>182.634033</ele>
  <time>2011-07-08T04:39:51Z</time>
  <speed>1.890000</speed>
</trkpt>
<trkpt lat="32.583309174" lon="35.006008148">
  <ele>184.575439</ele>
  <time>2011-07-08T04:40:08Z</time>
  <speed>2.780000</speed>
</trkpt>
<trkpt lat="32.583202362" lon="35.005996704">
  <ele>185.747314</ele>
  <time>2011-07-08T04:40:12Z</time>
  <speed>1.860000</speed>
</trkpt>
<trkpt lat="32.583141327" lon="35.006076813">
  <ele>184.380127</ele>
  <time>2011-07-08T04:40:22Z</time>
  <speed>0.160000</speed>
</trkpt>
<trkpt lat="32.582942963" lon="35.005847931">
  <ele>181.290283</ele>
  <time>2011-07-08T04:41:08Z</time>
  <speed>3.750000</speed>
</trkpt>
<trkpt lat="32.582851410" lon="35.005596161">
  <ele>175.094971</ele>
  <time>2011-07-08T04:41:15Z</time>
  <speed>2.110000</speed>
</trkpt>
<trkpt lat="32.582614899" lon="35.005592346">
  <ele>173.200439</ele>
  <time>2011-07-08T04:41:25Z</time>
  <speed>3.240000</speed>
</trkpt>
<trkpt lat="32.582416534" lon="35.005298615">
  <ele>163.302002</ele>
  <time>2011-07-08T04:41:38Z</time>
  <speed>2.350000</speed>
</trkpt>
<trkpt lat="32.582088470" lon="35.005069733">
  <ele>155.927002</ele>
  <time>2011-07-08T04:42:01Z</time>
  <speed>3.010000</speed>
</trkpt>
<trkpt lat="32.582199097" lon="35.004528046">
  <ele>139.216064</ele>
  <time>2011-07-08T04:42:21Z</time>
  <speed>1.510000</speed>
</trkpt>
<trkpt lat="32.582126617" lon="35.004386902">
  <ele>133.903564</ele>
  <time>2011-07-08T04:42:28Z</time>
  <speed>2.930000</speed>
</trkpt>
<trkpt lat="32.582180023" lon="35.004283905">
  <ele>129.634033</ele>
  <time>2011-07-08T04:42:34Z</time>
  <speed>1.390000</speed>
</trkpt>
<trkpt lat="32.581985474" lon="35.004142761">
  <ele>125.693970</ele>
  <time>2011-07-08T04:42:46Z</time>
  <speed>1.610000</speed>
</trkpt>
<trkpt lat="32.581954956" lon="35.004032135">
  <ele>122.027954</ele>
  <time>2011-07-08T04:42:52Z</time>
  <speed>2.160000</speed>
</trkpt>
<trkpt lat="32.582111359" lon="35.003505707">
  <ele>109.678345</ele>
  <time>2011-07-08T04:43:17Z</time>
  <speed>0.510000</speed>
</trkpt>
<trkpt lat="32.581813812" lon="35.003684998">
  <ele>111.697876</ele>
  <time>2011-07-08T04:46:58Z</time>
  <speed>1.550000</speed>
</trkpt>
<trkpt lat="32.581539154" lon="35.003959656">
  <ele>113.553345</ele>
  <time>2011-07-08T04:47:21Z</time>
  <speed>1.470000</speed>
</trkpt>
<trkpt lat="32.581279755" lon="35.004093170">
  <ele>118.973267</ele>
  <time>2011-07-08T04:47:40Z</time>
  <speed>1.530000</speed>
</trkpt>
<trkpt lat="32.581077576" lon="35.004314423">
  <ele>120.207642</ele>
  <time>2011-07-08T04:47:59Z</time>
  <speed>1.990000</speed>
</trkpt>
<trkpt lat="32.580951691" lon="35.004673004">
  <ele>123.649048</ele>
  <time>2011-07-08T04:48:17Z</time>
  <speed>2.000000</speed>
</trkpt>
<trkpt lat="32.580974579" lon="35.004867554">
  <ele>122.649048</ele>
  <time>2011-07-08T04:48:25Z</time>
  <speed>1.890000</speed>
</trkpt>
<trkpt lat="32.580871582" lon="35.005313873">
  <ele>122.920532</ele>
  <time>2011-07-08T04:48:50Z</time>
  <speed>1.820000</speed>
</trkpt>
<trkpt lat="32.580780029" lon="35.006752014">
  <ele>132.251221</ele>
  <time>2011-07-08T04:50:01Z</time>
  <speed>1.910000</speed>
</trkpt>
<trkpt lat="32.580844879" lon="35.007354736">
  <ele>135.341064</ele>
  <time>2011-07-08T04:50:32Z</time>
  <speed>1.560000</speed>
</trkpt>
<trkpt lat="32.580791473" lon="35.007911682">
  <ele>140.360596</ele>
  <time>2011-07-08T04:51:04Z</time>
  <speed>1.450000</speed>
</trkpt>
<trkpt lat="32.581268311" lon="35.007736206">
  <ele>143.290283</ele>
  <time>2011-07-08T04:51:42Z</time>
  <speed>1.730000</speed>
</trkpt>
<trkpt lat="32.581554413" lon="35.007743835">
  <ele>144.216064</ele>
  <time>2011-07-08T04:51:59Z</time>
  <speed>1.880000</speed>
</trkpt>
<trkpt lat="32.581790924" lon="35.007789612">
  <ele>142.458252</ele>
  <time>2011-07-08T04:52:13Z</time>
  <speed>1.630000</speed>
</trkpt>
<trkpt lat="32.582256317" lon="35.008007050">
  <ele>146.692627</ele>
  <time>2011-07-08T04:52:45Z</time>
  <speed>1.760000</speed>
</trkpt>
<trkpt lat="32.582389832" lon="35.008155823">
  <ele>149.509033</ele>
  <time>2011-07-08T04:52:56Z</time>
  <speed>1.990000</speed>
</trkpt>
<trkpt lat="32.582492828" lon="35.008491516">
  <ele>151.864502</ele>
  <time>2011-07-08T04:53:15Z</time>
  <speed>1.730000</speed>
</trkpt>
<trkpt lat="32.582843781" lon="35.008880615">
  <ele>154.762939</ele>
  <time>2011-07-08T04:53:47Z</time>
  <speed>1.750000</speed>
</trkpt>
<trkpt lat="32.582920074" lon="35.009365082">
  <ele>158.083252</ele>
  <time>2011-07-08T04:54:16Z</time>
  <speed>1.570000</speed>
</trkpt>
<trkpt lat="32.583293915" lon="35.009860992">
  <ele>163.759033</ele>
  <time>2011-07-08T04:54:50Z</time>
  <speed>1.770000</speed>
</trkpt>
<trkpt lat="32.583587646" lon="35.010505676">
  <ele>162.997314</ele>
  <time>2011-07-08T04:55:28Z</time>
  <speed>1.820000</speed>
</trkpt>
<trkpt lat="32.583797455" lon="35.010765076">
  <ele>166.462158</ele>
  <time>2011-07-08T04:55:46Z</time>
  <speed>1.630000</speed>
</trkpt>
<trkpt lat="32.583847046" lon="35.011257172">
  <ele>170.630127</ele>
  <time>2011-07-08T04:56:08Z</time>
  <speed>2.030000</speed>
</trkpt>
<trkpt lat="32.583698273" lon="35.011531830">
  <ele>174.173096</ele>
  <time>2011-07-08T04:56:24Z</time>
  <speed>2.060000</speed>
</trkpt>
<trkpt lat="32.583690643" lon="35.011875153">
  <ele>174.930908</ele>
  <time>2011-07-08T04:56:42Z</time>
  <speed>1.780000</speed>
</trkpt>
<trkpt lat="32.583515167" lon="35.012264252">
  <ele>178.833252</ele>
  <time>2011-07-08T04:57:07Z</time>
  <speed>1.920000</speed>
</trkpt>
<trkpt lat="32.583690643" lon="35.012992859">
  <ele>183.227783</ele>
  <time>2011-07-08T04:57:37Z</time>
  <speed>2.670000</speed>
</trkpt>
<trkpt lat="32.583789825" lon="35.013164520">
  <ele>181.137939</ele>
  <time>2011-07-08T04:57:45Z</time>
  <speed>1.350000</speed>
</trkpt>
<trkpt lat="32.583972931" lon="35.013298035">
  <ele>183.071533</ele>
  <time>2011-07-08T04:57:55Z</time>
  <speed>1.950000</speed>
</trkpt>
<trkpt lat="32.584484100" lon="35.013198853">
  <ele>185.552002</ele>
  <time>2011-07-08T04:58:34Z</time>
  <speed>1.290000</speed>
</trkpt>
<trkpt lat="32.584606171" lon="35.013114929">
  <ele>181.438721</ele>
  <time>2011-07-08T05:00:52Z</time>
  <speed>0.120000</speed>
</trkpt>
<trkpt lat="32.584564209" lon="35.013130188">
  <ele>201.216064</ele>
  <time>2011-07-08T05:02:42Z</time>
</trkpt>
<trkpt lat="32.584667206" lon="35.012622833">
  <ele>192.016846</ele>
  <time>2011-07-08T05:03:19Z</time>
  <speed>3.080000</speed>
</trkpt>
<trkpt lat="32.584770203" lon="35.012477875">
  <ele>188.169189</ele>
  <time>2011-07-08T05:03:24Z</time>
  <speed>3.280000</speed>
</trkpt>
<trkpt lat="32.585163116" lon="35.012222290">
  <ele>180.161377</ele>
  <time>2011-07-08T05:03:39Z</time>
  <speed>2.850000</speed>
</trkpt>
<trkpt lat="32.585342407" lon="35.011775970">
  <ele>183.665283</ele>
  <time>2011-07-08T05:03:53Z</time>
  <speed>3.060000</speed>
</trkpt>
<trkpt lat="32.585426331" lon="35.011520386">
  <ele>186.380127</ele>
  <time>2011-07-08T05:04:01Z</time>
  <speed>3.040000</speed>
</trkpt>
<trkpt lat="32.585578918" lon="35.011341095">
  <ele>185.880127</ele>
  <time>2011-07-08T05:04:10Z</time>
  <speed>2.470000</speed>
</trkpt>
<trkpt lat="32.585544586" lon="35.010597229">
  <ele>189.837158</ele>
  <time>2011-07-08T05:04:35Z</time>
  <speed>1.720000</speed>
</trkpt>
<trkpt lat="32.585422516" lon="35.010066986">
  <ele>191.872314</ele>
  <time>2011-07-08T05:05:02Z</time>
  <speed>1.510000</speed>
</trkpt>
<trkpt lat="32.585399628" lon="35.009281158">
  <ele>197.149658</ele>
  <time>2011-07-08T05:05:40Z</time>
  <speed>1.850000</speed>
</trkpt>
<trkpt lat="32.585479736" lon="35.009170532">
  <ele>196.071533</ele>
  <time>2011-07-08T05:05:48Z</time>
  <speed>3.150000</speed>
</trkpt>
<trkpt lat="32.585533142" lon="35.008831024">
  <ele>193.180908</ele>
  <time>2011-07-08T05:05:56Z</time>
  <speed>4.040000</speed>
</trkpt>
<trkpt lat="32.585525513" lon="35.007968903">
  <ele>173.911377</ele>
  <time>2011-07-08T05:06:23Z</time>
  <speed>2.310000</speed>
</trkpt>
<trkpt lat="32.585723877" lon="35.007957458">
  <ele>169.059814</ele>
  <time>2011-07-08T05:06:31Z</time>
  <speed>1.400000</speed>
</trkpt>
<trkpt lat="32.585754395" lon="35.007759094">
  <ele>163.282471</ele>
  <time>2011-07-08T05:06:42Z</time>
  <speed>2.240000</speed>
</trkpt>
<trkpt lat="32.585563660" lon="35.007373810">
  <ele>155.813721</ele>
  <time>2011-07-08T05:06:55Z</time>
  <speed>3.350000</speed>
</trkpt>
<trkpt lat="32.585613251" lon="35.007152557">
  <ele>150.352783</ele>
  <time>2011-07-08T05:07:03Z</time>
  <speed>3.490000</speed>
</trkpt>
<trkpt lat="32.585182190" lon="35.006645203">
  <ele>143.141846</ele>
  <time>2011-07-08T05:07:18Z</time>
  <speed>4.990000</speed>
</trkpt>
<trkpt lat="32.585155487" lon="35.006473541">
  <ele>146.626221</ele>
  <time>2011-07-08T05:07:23Z</time>
  <speed>1.610000</speed>
</trkpt>
<trkpt lat="32.585403442" lon="35.005706787">
  <ele>158.614502</ele>
  <time>2011-07-08T05:07:58Z</time>
  <speed>2.170000</speed>
</trkpt>
<trkpt lat="32.585739136" lon="35.005321503">
  <ele>151.567627</ele>
  <time>2011-07-08T05:08:15Z</time>
  <speed>5.160000</speed>
</trkpt>
<trkpt lat="32.585834503" lon="35.005149841">
  <ele>152.044189</ele>
  <time>2011-07-08T05:08:19Z</time>
  <speed>3.280000</speed>
</trkpt>
<trkpt lat="32.585872650" lon="35.004871368">
  <ele>155.712158</ele>
  <time>2011-07-08T05:08:29Z</time>
  <speed>1.830000</speed>
</trkpt>
<trkpt lat="32.585750580" lon="35.004741669">
  <ele>159.028564</ele>
  <time>2011-07-08T05:08:38Z</time>
  <speed>1.840000</speed>
</trkpt>
<trkpt lat="32.585506439" lon="35.004680634">
  <ele>157.563721</ele>
  <time>2011-07-08T05:08:51Z</time>
  <speed>1.990000</speed>
</trkpt>
<trkpt lat="32.585536957" lon="35.004558563">
  <ele>160.055908</ele>
  <time>2011-07-08T05:08:57Z</time>
  <speed>1.910000</speed>
</trkpt>
<trkpt lat="32.585418701" lon="35.004505157">
  <ele>160.552002</ele>
  <time>2011-07-08T05:10:22Z</time>
  <speed>2.940000</speed>
</trkpt>
<trkpt lat="32.585330963" lon="35.004310608">
  <ele>155.594971</ele>
  <time>2011-07-08T05:10:30Z</time>
  <speed>1.690000</speed>
</trkpt>
<trkpt lat="32.585296631" lon="35.003982544">
  <ele>147.653564</ele>
  <time>2011-07-08T05:10:48Z</time>
  <speed>0.980000</speed>
</trkpt>
<trkpt lat="32.585186005" lon="35.003795624">
  <ele>141.634033</ele>
  <time>2011-07-08T05:11:05Z</time>
  <speed>1.220000</speed>
</trkpt>
<trkpt lat="32.585258484" lon="35.003658295">
  <ele>138.954346</ele>
  <time>2011-07-08T05:11:10Z</time>
  <speed>3.110000</speed>
</trkpt>
<trkpt lat="32.585235596" lon="35.003379822">
  <ele>136.466064</ele>
  <time>2011-07-08T05:11:20Z</time>
  <speed>1.440000</speed>
</trkpt>
<trkpt lat="32.585174561" lon="35.003261566">
  <ele>130.743408</ele>
  <time>2011-07-08T05:11:26Z</time>
  <speed>1.610000</speed>
</trkpt>
<trkpt lat="32.585071564" lon="35.003242493">
  <ele>124.951782</ele>
  <time>2011-07-08T05:11:32Z</time>
  <speed>1.980000</speed>
</trkpt>
<trkpt lat="32.584945679" lon="35.002979279">
  <ele>114.959595</ele>
  <time>2011-07-08T05:11:45Z</time>
  <speed>2.430000</speed>
</trkpt>
<trkpt lat="32.584880829" lon="35.002605438">
  <ele>114.910767</ele>
  <time>2011-07-08T05:11:59Z</time>
  <speed>2.140000</speed>
</trkpt>
<trkpt lat="32.584983826" lon="35.002334595">
  <ele>108.371704</ele>
  <time>2011-07-08T05:12:11Z</time>
  <speed>2.700000</speed>
</trkpt>
<trkpt lat="32.584915161" lon="35.002098083">
  <ele>106.592407</ele>
  <time>2011-07-08T05:12:21Z</time>
  <speed>1.200000</speed>
</trkpt>
<trkpt lat="32.584762573" lon="35.001972198">
  <ele>106.422485</ele>
  <time>2011-07-08T05:14:01Z</time>
  <speed>3.060000</speed>
</trkpt>
<trkpt lat="32.584362030" lon="35.001842499">
  <ele>98.297485</ele>
  <time>2011-07-08T05:14:13Z</time>
  <speed>3.570000</speed>
</trkpt>
<trkpt lat="32.584220886" lon="35.001686096">
  <ele>97.453735</ele>
  <time>2011-07-08T05:14:18Z</time>
  <speed>3.820000</speed>
</trkpt>
<trkpt lat="32.584117889" lon="35.001663208">
  <ele>97.141235</ele>
  <time>2011-07-08T05:14:22Z</time>
  <speed>2.750000</speed>
</trkpt>
<trkpt lat="32.583927155" lon="35.002201080">
  <ele>101.479126</ele>
  <time>2011-07-08T05:14:50Z</time>
  <speed>1.890000</speed>
</trkpt>
<trkpt lat="32.583396912" lon="35.002754211">
  <ele>104.740845</ele>
  <time>2011-07-08T05:15:30Z</time>
  <speed>1.630000</speed>
</trkpt>
<trkpt lat="32.582729340" lon="35.003257751">
  <ele>112.600220</ele>
  <time>2011-07-08T05:16:20Z</time>
  <speed>2.230000</speed>
</trkpt>
<trkpt lat="32.582122803" lon="35.003479004">
  <ele>114.926392</ele>
  <time>2011-07-08T05:16:59Z</time>
  <speed>1.440000</speed>
</trkpt>
<trkpt lat="32.581790924" lon="35.003707886">
  <ele>117.109985</ele>
  <time>2011-07-08T05:17:27Z</time>
  <speed>1.250000</speed>
</trkpt>
<trkpt lat="32.581203461" lon="35.004173279">
  <ele>120.553345</ele>
  <time>2011-07-08T05:18:15Z</time>
  <speed>1.580000</speed>
</trkpt>
<trkpt lat="32.581016541" lon="35.004417419">
  <ele>124.531860</ele>
  <time>2011-07-08T05:18:34Z</time>
  <speed>1.500000</speed>
</trkpt>
<trkpt lat="32.580917358" lon="35.004684448">
  <ele>128.442627</ele>
  <time>2011-07-08T05:18:50Z</time>
  <speed>1.860000</speed>
</trkpt>
<trkpt lat="32.580837250" lon="35.005390167">
  <ele>130.841064</ele>
  <time>2011-07-08T05:19:28Z</time>
  <speed>1.360000</speed>
</trkpt>
<trkpt lat="32.580780029" lon="35.006870270">
  <ele>136.809814</ele>
  <time>2011-07-08T05:20:50Z</time>
  <speed>1.950000</speed>
</trkpt>
<trkpt lat="32.580837250" lon="35.007358551">
  <ele>140.255127</ele>
  <time>2011-07-08T05:21:17Z</time>
  <speed>1.410000</speed>
</trkpt>
<trkpt lat="32.580757141" lon="35.007926941">
  <ele>143.259033</ele>
  <time>2011-07-08T05:21:51Z</time>
  <speed>1.240000</speed>
</trkpt>
<trkpt lat="32.581291199" lon="35.007736206">
  <ele>143.927002</ele>
  <time>2011-07-08T05:22:32Z</time>
  <speed>1.500000</speed>
</trkpt>
<trkpt lat="32.581321716" lon="35.007736206">
  <ele>143.946533</ele>
  <time>2011-07-08T05:22:34Z</time>
  <speed>1.700000</speed>
</trkpt>
<trkpt lat="32.581775665" lon="35.007816315">
  <ele>144.251221</ele>
  <time>2011-07-08T05:23:00Z</time>
  <speed>1.690000</speed>
</trkpt>
<trkpt lat="32.582065582" lon="35.007953644">
  <ele>148.509033</ele>
  <time>2011-07-08T05:23:21Z</time>
  <speed>1.780000</speed>
</trkpt>
<trkpt lat="32.582332611" lon="35.008117676">
  <ele>153.634033</ele>
  <time>2011-07-08T05:23:39Z</time>
  <speed>1.690000</speed>
</trkpt>
<trkpt lat="32.582489014" lon="35.008495331">
  <ele>159.423096</ele>
  <time>2011-07-08T05:24:05Z</time>
  <speed>1.280000</speed>
</trkpt>
<trkpt lat="32.582836151" lon="35.008914948">
  <ele>160.348877</ele>
  <time>2011-07-08T05:24:39Z</time>
  <speed>1.680000</speed>
</trkpt>
<trkpt lat="32.582889557" lon="35.009376526">
  <ele>165.587158</ele>
  <time>2011-07-08T05:25:06Z</time>
  <speed>1.010000</speed>
</trkpt>
<trkpt lat="32.583087921" lon="35.009536743">
  <ele>167.512939</ele>
  <time>2011-07-08T05:25:24Z</time>
  <speed>1.590000</speed>
</trkpt>
<trkpt lat="32.583599091" lon="35.010528564">
  <ele>170.055908</ele>
  <time>2011-07-08T05:26:31Z</time>
  <speed>1.670000</speed>
</trkpt>
<trkpt lat="32.583778381" lon="35.010719299">
  <ele>172.790283</ele>
  <time>2011-07-08T05:26:46Z</time>
  <speed>1.470000</speed>
</trkpt>
<trkpt lat="32.583816528" lon="35.011299133">
  <ele>179.762939</ele>
  <time>2011-07-08T05:27:18Z</time>
  <speed>1.740000</speed>
</trkpt>
<trkpt lat="32.583686829" lon="35.011619568">
  <ele>182.067627</ele>
  <time>2011-07-08T05:27:39Z</time>
  <speed>1.470000</speed>
</trkpt>
<trkpt lat="32.583667755" lon="35.011951447">
  <ele>183.743408</ele>
  <time>2011-07-08T05:27:58Z</time>
  <speed>1.640000</speed>
</trkpt>
<trkpt lat="32.583503723" lon="35.012218475">
  <ele>182.274658</ele>
  <time>2011-07-08T05:28:19Z</time>
  <speed>1.310000</speed>
</trkpt>
<trkpt lat="32.583499908" lon="35.012416840">
  <ele>183.075439</ele>
  <time>2011-07-08T05:28:31Z</time>
  <speed>1.590000</speed>
</trkpt>
<trkpt lat="32.583797455" lon="35.013313293">
  <ele>182.309814</ele>
  <time>2011-07-08T05:29:17Z</time>
  <speed>1.780000</speed>
</trkpt>
<trkpt lat="32.584465027" lon="35.013198853">
  <ele>179.419189</ele>
  <time>2011-07-08T05:29:47Z</time>
  <speed>1.160000</speed>
</trkpt>
<trkpt lat="32.584804535" lon="35.012924194">
  <ele>178.837158</ele>
  <time>2011-07-08T05:35:03Z</time>
  <speed>2.020000</speed>
</trkpt>
<trkpt lat="32.585048676" lon="35.013019562">
  <ele>174.137939</ele>
  <time>2011-07-08T05:35:11Z</time>
  <speed>4.210000</speed>
</trkpt>
<trkpt lat="32.585109711" lon="35.013107300">
  <ele>171.630127</ele>
  <time>2011-07-08T05:35:14Z</time>
  <speed>2.770000</speed>
</trkpt>
<trkpt lat="32.585330963" lon="35.013160706">
  <ele>168.790283</ele>
  <time>2011-07-08T05:35:18Z</time>
  <speed>5.800000</speed>
</trkpt>
<trkpt lat="32.585746765" lon="35.013118744">
  <ele>164.993408</ele>
  <time>2011-07-08T05:35:26Z</time>
  <speed>5.120000</speed>
</trkpt>
<trkpt lat="32.586021423" lon="35.013229370">
  <ele>162.930908</ele>
  <time>2011-07-08T05:35:32Z</time>
  <speed>5.310000</speed>
</trkpt>
<trkpt lat="32.586452484" lon="35.013149261">
  <ele>161.313721</ele>
  <time>2011-07-08T05:35:39Z</time>
  <speed>6.590000</speed>
</trkpt>
<trkpt lat="32.586914063" lon="35.013248444">
  <ele>157.696533</ele>
  <time>2011-07-08T05:35:50Z</time>
  <speed>3.400000</speed>
</trkpt>
<trkpt lat="32.587532043" lon="35.013263702">
  <ele>147.653564</ele>
  <time>2011-07-08T05:36:03Z</time>
  <speed>3.140000</speed>
</trkpt>
<trkpt lat="32.587768555" lon="35.013378143">
  <ele>138.798096</ele>
  <time>2011-07-08T05:36:11Z</time>
  <speed>4.000000</speed>
</trkpt>
<trkpt lat="32.588211060" lon="35.012737274">
  <ele>123.260376</ele>
  <time>2011-07-08T05:36:26Z</time>
  <speed>4.290000</speed>
</trkpt>
<trkpt lat="32.588291168" lon="35.012245178">
  <ele>118.010376</ele>
  <time>2011-07-08T05:36:34Z</time>
  <speed>3.170000</speed>
</trkpt>
<trkpt lat="32.588451385" lon="35.012252808">
  <ele>112.674438</ele>
  <time>2011-07-08T05:36:41Z</time>
  <speed>4.190000</speed>
</trkpt>
<trkpt lat="32.588508606" lon="35.011997223">
  <ele>110.740845</ele>
  <time>2011-07-08T05:36:46Z</time>
  <speed>3.840000</speed>
</trkpt>
<trkpt lat="32.588932037" lon="35.011276245">
  <ele>99.416626</ele>
  <time>2011-07-08T05:37:03Z</time>
  <speed>4.230000</speed>
</trkpt>
<trkpt lat="32.588851929" lon="35.010829926">
  <ele>98.484985</ele>
  <time>2011-07-08T05:37:11Z</time>
  <speed>4.190000</speed>
</trkpt>
<trkpt lat="32.589019775" lon="35.010498047">
  <ele>96.147095</ele>
  <time>2011-07-08T05:37:17Z</time>
  <speed>5.820000</speed>
</trkpt>
<trkpt lat="32.589302063" lon="35.010334015">
  <ele>92.975220</ele>
  <time>2011-07-08T05:37:24Z</time>
  <speed>3.560000</speed>
</trkpt>
<trkpt lat="32.589851379" lon="35.010395050">
  <ele>90.313110</ele>
  <time>2011-07-08T05:37:38Z</time>
  <speed>3.830000</speed>
</trkpt>
<trkpt lat="32.590087891" lon="35.010627747">
  <ele>88.096313</ele>
  <time>2011-07-08T05:37:47Z</time>
  <speed>3.780000</speed>
</trkpt>
<trkpt lat="32.589916229" lon="35.010829926">
  <ele>86.676392</ele>
  <time>2011-07-08T05:37:52Z</time>
  <speed>5.880000</speed>
</trkpt>
<trkpt lat="32.589889526" lon="35.010993958">
  <ele>86.719360</ele>
  <time>2011-07-08T05:37:56Z</time>
  <speed>1.110000</speed>
</trkpt>
<trkpt lat="32.591125488" lon="35.011005402">
  <ele>79.981079</ele>
  <time>2011-07-08T05:38:15Z</time>
  <speed>9.090000</speed>
</trkpt>
<trkpt lat="32.591880798" lon="35.010868073">
  <ele>66.223267</ele>
  <time>2011-07-08T05:38:24Z</time>
  <speed>9.230000</speed>
</trkpt>
<trkpt lat="32.592388153" lon="35.010566711">
  <ele>62.974915</ele>
  <time>2011-07-08T05:38:31Z</time>
  <speed>7.900000</speed>
</trkpt>
<trkpt lat="32.592567444" lon="35.010368347">
  <ele>58.815735</ele>
  <time>2011-07-08T05:38:35Z</time>
  <speed>6.190000</speed>
</trkpt>
<trkpt lat="32.592674255" lon="35.010128021">
  <ele>57.156555</ele>
  <time>2011-07-08T05:38:39Z</time>
  <speed>5.510000</speed>
</trkpt>
<trkpt lat="32.592803955" lon="35.009140015">
  <ele>55.102844</ele>
  <time>2011-07-08T05:38:51Z</time>
  <speed>6.580000</speed>
</trkpt>
<trkpt lat="32.592720032" lon="35.008525848">
  <ele>55.255188</ele>
  <time>2011-07-08T05:39:00Z</time>
  <speed>5.440000</speed>
</trkpt>
<trkpt lat="32.592601776" lon="35.008171082">
  <ele>58.340149</ele>
  <time>2011-07-08T05:39:06Z</time>
  <speed>4.380000</speed>
</trkpt>
<trkpt lat="32.592395782" lon="35.007831573">
  <ele>57.886047</ele>
  <time>2011-07-08T05:39:15Z</time>
  <speed>4.080000</speed>
</trkpt>
<trkpt lat="32.592082977" lon="35.007518768">
  <ele>59.013000</ele>
  <time>2011-07-08T05:39:28Z</time>
  <speed>3.330000</speed>
</trkpt>
<trkpt lat="32.591587067" lon="35.007274628">
  <ele>62.069641</ele>
  <time>2011-07-08T05:39:47Z</time>
  <speed>2.810000</speed>
</trkpt>
<trkpt lat="32.591114044" lon="35.007297516">
  <ele>58.032532</ele>
  <time>2011-07-08T05:40:04Z</time>
  <speed>2.600000</speed>
</trkpt>
<trkpt lat="32.590927124" lon="35.007049561">
  <ele>59.564758</ele>
  <time>2011-07-08T05:40:15Z</time>
  <speed>2.640000</speed>
</trkpt>
<trkpt lat="32.590991974" lon="35.006896973">
  <ele>55.237610</ele>
  <time>2011-07-08T05:40:20Z</time>
  <speed>3.780000</speed>
</trkpt>
<trkpt lat="32.591064453" lon="35.006855011">
  <ele>54.127258</ele>
  <time>2011-07-08T05:40:22Z</time>
  <speed>4.360000</speed>
</trkpt>
<trkpt lat="32.591785431" lon="35.006248474">
  <ele>49.668274</ele>
  <time>2011-07-08T05:40:39Z</time>
  <speed>6.280000</speed>
</trkpt>
<trkpt lat="32.591854095" lon="35.006050110">
  <ele>52.166321</ele>
  <time>2011-07-08T05:40:42Z</time>
  <speed>6.200000</speed>
</trkpt>
<trkpt lat="32.591800690" lon="35.005737305">
  <ele>52.726868</ele>
  <time>2011-07-08T05:40:46Z</time>
  <speed>6.540000</speed>
</trkpt>
<trkpt lat="32.591850281" lon="35.005630493">
  <ele>51.430969</ele>
  <time>2011-07-08T05:40:48Z</time>
  <speed>6.120000</speed>
</trkpt>
<trkpt lat="32.592483521" lon="35.005489349">
  <ele>54.131165</ele>
  <time>2011-07-08T05:41:08Z</time>
  <speed>2.780000</speed>
</trkpt>
<trkpt lat="32.593875885" lon="35.004772186">
  <ele>60.940735</ele>
  <time>2011-07-08T05:42:11Z</time>
  <speed>2.280000</speed>
</trkpt>
<trkpt lat="32.594146729" lon="35.004764557">
  <ele>61.723938</ele>
  <time>2011-07-08T05:42:27Z</time>
  <speed>1.350000</speed>
</trkpt>
<trkpt lat="32.594223022" lon="35.004619598">
  <ele>64.121704</ele>
  <time>2011-07-08T05:42:34Z</time>
  <speed>1.600000</speed>
</trkpt>
<trkpt lat="32.594409943" lon="35.004695892">
  <ele>66.543579</ele>
  <time>2011-07-08T05:42:47Z</time>
  <speed>1.770000</speed>
</trkpt>
<trkpt lat="32.594669342" lon="35.004695892">
  <ele>72.779907</ele>
  <time>2011-07-08T05:43:18Z</time>
  <speed>1.080000</speed>
</trkpt>
<trkpt lat="32.594753265" lon="35.004554749">
  <ele>75.789673</ele>
  <time>2011-07-08T05:43:40Z</time>
  <speed>0.830000</speed>
</trkpt>
<trkpt lat="32.594940186" lon="35.004474640">
  <ele>79.834595</ele>
  <time>2011-07-08T05:44:12Z</time>
  <speed>0.350000</speed>
</trkpt>
<trkpt lat="32.595195770" lon="35.004604340">
  <ele>82.115845</ele>
  <time>2011-07-08T05:45:15Z</time>
  <speed>1.040000</speed>
</trkpt>
<trkpt lat="32.595363617" lon="35.004356384">
  <ele>86.244751</ele>
  <time>2011-07-08T05:45:38Z</time>
  <speed>1.530000</speed>
</trkpt>
<trkpt lat="32.596847534" lon="35.004169464">
  <ele>94.240845</ele>
  <time>2011-07-08T05:47:13Z</time>
  <speed>3.980000</speed>
</trkpt>
<trkpt lat="32.597087860" lon="35.004173279">
  <ele>95.533813</ele>
  <time>2011-07-08T05:47:17Z</time>
  <speed>8.010000</speed>
</trkpt>
<trkpt lat="32.597434998" lon="35.004379272">
  <ele>90.324829</ele>
  <time>2011-07-08T05:47:31Z</time>
  <speed>0.040000</speed>
</trkpt>
<trkpt lat="32.597461700" lon="35.004333496">
  <ele>91.041626</ele>
  <time>2011-07-08T05:48:08Z</time>
  <speed>0.010000</speed>
</trkpt>
</trkseg>
</trk>
</gpx>
